createdAt,value
2022-10-02T00:03:43.058Z,2.30
2022-10-02T00:09:07.990Z,2.23
2022-10-02T00:14:35.542Z,2.30
2022-10-02T00:19:58.142Z,2.13
2022-10-02T00:25:33.415Z,2.33
2022-10-02T00:30:58.091Z,2.17
2022-10-02T00:36:31.063Z,2.17
2022-10-02T00:41:53.322Z,2.20
2022-10-02T00:47:43.411Z,2.03
2022-10-02T00:53:22.895Z,1.97
2022-10-02T00:59:17.276Z,2.40
2022-10-02T01:04:41.053Z,2.30
2022-10-02T01:10:03.978Z,2.07
2022-10-02T01:15:54.696Z,2.60
2022-10-02T01:21:27.666Z,2.20
2022-10-02T01:26:49.925Z,2.40
2022-10-02T01:32:12.661Z,2.77
2022-10-02T01:37:39.584Z,2.47
2022-10-02T01:43:19.953Z,2.10
2022-10-02T01:48:45.595Z,2.73
2022-10-02T01:54:48.453Z,2.20
2022-10-02T02:00:17.461Z,2.60
2022-10-02T02:05:48.951Z,2.20
2022-10-02T02:11:14.978Z,2.20
2022-10-02T02:17:00.897Z,2.23
2022-10-02T02:22:36.970Z,2.30
2022-10-02T02:28:06.357Z,1.93
2022-10-02T02:33:43.062Z,1.90
2022-10-02T02:39:09.526Z,1.97
2022-10-02T02:44:38.804Z,2.13
2022-10-02T02:50:11.818Z,1.80
2022-10-02T02:55:45.342Z,2.10
2022-10-02T03:01:08.080Z,1.87
2022-10-02T03:06:33.389Z,1.77
2022-10-02T03:12:10.737Z,2.03
2022-10-02T03:17:45.132Z,2.10
2022-10-02T03:23:35.125Z,2.20
2022-10-02T03:29:01.331Z,1.87
2022-10-02T03:34:24.396Z,2.47
2022-10-02T03:39:47.016Z,2.57
2022-10-02T03:45:09.568Z,2.57
2022-10-02T03:50:36.103Z,1.70
2022-10-02T03:56:20.712Z,2.33
2022-10-02T04:01:49.413Z,2.17
2022-10-02T04:07:19.431Z,2.13
2022-10-02T04:12:50.460Z,2.07
2022-10-02T04:18:20.935Z,2.60
2022-10-02T04:23:55.577Z,2.20
2022-10-02T04:29:25.936Z,2.50
2022-10-02T04:34:48.140Z,2.13
2022-10-02T04:40:50.314Z,2.30
2022-10-02T04:46:27.714Z,1.87
2022-10-02T04:52:13.291Z,1.80
2022-10-02T04:58:12.387Z,2.07
2022-10-02T05:04:16.160Z,2.10
2022-10-02T05:10:01.875Z,2.57
2022-10-02T05:15:58.084Z,2.10
2022-10-02T05:21:26.199Z,2.00
2022-10-02T05:27:06.651Z,2.70
2022-10-02T05:32:47.738Z,1.90
2022-10-02T05:38:31.661Z,2.33
2022-10-02T05:44:15.144Z,2.03
2022-10-02T05:49:51.295Z,1.90
2022-10-02T05:55:26.493Z,2.17
2022-10-02T06:00:57.108Z,2.43
2022-10-02T06:06:30.898Z,2.03
2022-10-02T06:12:00.851Z,2.60
2022-10-02T06:17:31.067Z,2.83
2022-10-02T06:23:02.407Z,2.43
2022-10-02T06:28:36.143Z,2.30
2022-10-02T06:33:58.519Z,2.00
2022-10-02T06:39:36.189Z,1.97
2022-10-02T06:45:10.228Z,2.30
2022-10-02T06:50:46.079Z,2.43
2022-10-02T06:56:27.175Z,2.20
2022-10-02T07:02:25.588Z,2.67
2022-10-02T07:08:06.738Z,2.30
2022-10-02T07:13:47.821Z,3.23
2022-10-02T07:19:59.147Z,2.80
2022-10-02T07:25:30.686Z,2.97
2022-10-02T07:31:30.790Z,3.47
2022-10-02T07:37:11.631Z,3.57
2022-10-02T07:42:50.723Z,3.33
2022-10-02T07:48:35.923Z,3.83
2022-10-02T07:54:21.891Z,4.17
2022-10-02T07:59:47.343Z,3.53
2022-10-02T08:05:26.849Z,4.27
2022-10-02T08:10:58.207Z,4.77
2022-10-02T08:16:26.895Z,4.60
2022-10-02T08:21:57.318Z,4.40
2022-10-02T08:27:29.448Z,6.00
2022-10-02T08:32:51.828Z,4.23
2022-10-02T08:38:26.572Z,4.07
2022-10-02T08:44:15.969Z,4.30
2022-10-02T08:50:20.042Z,4.40
2022-10-02T08:55:59.038Z,3.90
2022-10-02T09:01:28.161Z,3.83
2022-10-02T09:07:05.602Z,4.50
2022-10-02T09:12:33.531Z,4.23
2022-10-02T09:18:15.696Z,4.27
2022-10-02T09:24:30.024Z,4.50
2022-10-02T09:30:21.095Z,4.37
2022-10-02T09:36:05.167Z,4.00
2022-10-02T09:41:50.179Z,3.83
2022-10-02T09:47:21.935Z,4.23
2022-10-02T09:53:03.759Z,4.57
2022-10-02T09:58:57.206Z,4.57
2022-10-02T10:04:42.213Z,4.37
2022-10-02T10:10:32.636Z,4.23
2022-10-02T10:16:32.009Z,4.03
2022-10-02T10:22:02.905Z,4.27
2022-10-02T10:27:43.841Z,3.57
2022-10-02T10:33:37.042Z,3.17
2022-10-02T10:39:06.751Z,3.60
2022-10-02T10:44:48.896Z,3.63
2022-10-02T10:50:39.481Z,3.67
2022-10-02T10:56:20.239Z,4.00
2022-10-02T11:01:48.168Z,3.20
2022-10-02T11:07:35.607Z,2.87
2022-10-02T11:13:22.401Z,2.97
2022-10-02T11:19:05.724Z,2.57
2022-10-02T11:24:37.186Z,2.40
2022-10-02T11:30:38.190Z,2.23
2022-10-02T11:36:44.384Z,2.67
2022-10-02T11:42:33.780Z,3.60
2022-10-02T11:48:24.122Z,3.13
2022-10-02T11:53:58.239Z,3.80
2022-10-02T11:59:22.477Z,4.40
2022-10-02T12:05:31.476Z,4.97
2022-10-02T12:11:09.355Z,3.40
2022-10-02T12:17:06.984Z,3.13
2022-10-02T12:23:29.504Z,3.07
2022-10-02T12:29:13.453Z,2.60
2022-10-02T12:34:44.587Z,2.47
2022-10-02T12:40:43.873Z,2.33
2022-10-02T12:46:39.775Z,2.30
2022-10-02T12:52:29.973Z,2.20
2022-10-02T12:58:23.142Z,2.23
2022-10-02T13:04:07.979Z,2.05
2022-10-02T13:09:43.835Z,1.70
2022-10-02T13:15:37.609Z,1.83
2022-10-02T13:21:27.953Z,1.70
2022-10-02T13:27:18.789Z,1.35
2022-10-02T13:32:51.574Z,1.55
2022-10-02T13:38:32.742Z,2.40
2022-10-02T13:44:43.079Z,1.75
2022-10-02T13:50:27.724Z,1.13
2022-10-02T13:56:15.557Z,1.30
2022-10-02T14:01:55.372Z,1.30
2022-10-02T14:07:53.023Z,1.67
2022-10-02T14:13:18.083Z,1.50
2022-10-02T14:19:01.268Z,1.08
2022-10-02T14:24:46.147Z,1.10
2022-10-02T14:30:18.822Z,1.13
2022-10-02T14:35:54.034Z,1.17
2022-10-02T14:41:38.355Z,1.50
2022-10-02T14:47:21.210Z,1.83
2022-10-02T14:53:02.426Z,1.58
2022-10-02T14:58:45.363Z,1.60
2022-10-02T15:04:23.366Z,1.27
2022-10-02T15:09:54.967Z,1.27
2022-10-02T15:15:43.243Z,1.77
2022-10-02T15:21:09.195Z,1.53
2022-10-02T15:26:54.920Z,2.13
2022-10-02T15:32:54.479Z,1.40
2022-10-02T15:38:25.041Z,1.70
2022-10-02T15:44:08.574Z,2.10
2022-10-02T15:49:44.900Z,1.57
2022-10-02T15:55:40.979Z,1.60
2022-10-02T16:01:26.661Z,1.50
2022-10-02T16:07:14.608Z,1.80
2022-10-02T16:12:55.196Z,1.70
2022-10-02T16:18:29.379Z,1.80
2022-10-02T16:24:13.183Z,1.80
2022-10-02T16:30:15.315Z,1.77
2022-10-02T16:35:43.524Z,2.20
2022-10-02T16:41:12.674Z,2.50
2022-10-02T16:46:51.639Z,2.63
2022-10-02T16:52:29.333Z,3.53
2022-10-02T16:58:02.623Z,3.53
2022-10-02T17:03:33.948Z,3.30
2022-10-02T17:09:35.012Z,3.10
2022-10-02T17:15:14.448Z,3.00
2022-10-02T17:20:54.240Z,3.00
2022-10-02T17:26:33.077Z,3.00
2022-10-02T17:31:59.143Z,4.43
2022-10-02T17:37:52.748Z,7.17
2022-10-02T17:43:31.110Z,5.53
2022-10-02T17:49:12.522Z,4.43
2022-10-02T17:55:15.702Z,3.10
2022-10-02T18:00:50.791Z,2.93
2022-10-02T18:06:42.079Z,3.80
2022-10-02T18:12:32.156Z,3.53
2022-10-02T18:18:12.908Z,3.20
2022-10-02T18:24:10.810Z,3.90
2022-10-02T18:30:15.707Z,3.00
2022-10-02T18:35:48.101Z,3.60
2022-10-02T18:41:41.295Z,4.20
2022-10-02T18:47:06.677Z,5.83
2022-10-02T18:53:07.268Z,4.23
2022-10-02T18:58:33.048Z,4.20
2022-10-02T19:04:24.305Z,4.33
2022-10-02T19:09:47.489Z,3.77
2022-10-02T19:15:21.465Z,3.67
2022-10-02T19:20:50.346Z,4.27
2022-10-02T19:26:28.827Z,4.07
2022-10-02T19:31:51.791Z,4.23
2022-10-02T19:37:17.399Z,3.63
2022-10-02T19:42:47.897Z,3.03
2022-10-02T19:48:10.986Z,2.97
2022-10-02T19:53:51.232Z,2.37
2022-10-02T19:59:26.338Z,2.70
2022-10-02T20:04:51.109Z,3.00
2022-10-02T20:10:29.195Z,2.60
2022-10-02T20:16:34.148Z,2.90
2022-10-02T20:22:06.916Z,2.43
2022-10-02T20:27:35.268Z,2.33
2022-10-02T20:33:09.642Z,2.20
2022-10-02T20:38:39.424Z,2.57
2022-10-02T20:44:06.393Z,2.57
2022-10-02T20:49:52.877Z,2.30
2022-10-02T20:55:34.895Z,2.80
2022-10-02T21:01:06.269Z,2.50
2022-10-02T21:06:40.751Z,2.50
2022-10-02T21:12:15.612Z,2.40
2022-10-02T21:17:58.152Z,4.20
2022-10-02T21:23:46.869Z,2.20
2022-10-02T21:29:30.886Z,2.43
2022-10-02T21:35:00.207Z,2.33
2022-10-02T21:40:38.418Z,2.23
2022-10-02T21:46:25.662Z,2.27
2022-10-02T21:52:15.988Z,2.83
2022-10-02T21:58:11.152Z,2.20
2022-10-02T22:04:08.253Z,2.43
2022-10-02T22:09:30.509Z,2.40
2022-10-02T22:15:18.911Z,2.50
2022-10-02T22:21:13.921Z,2.27
2022-10-02T22:26:51.459Z,2.43
2022-10-02T22:32:54.464Z,2.10
2022-10-02T22:38:34.023Z,2.47
2022-10-02T22:44:18.178Z,2.93
2022-10-02T22:49:46.241Z,1.63
2022-10-02T22:55:32.051Z,2.03
2022-10-02T23:01:21.480Z,2.47
2022-10-02T23:06:50.416Z,2.60
2022-10-02T23:12:26.641Z,2.90
2022-10-02T23:18:05.424Z,2.17
2022-10-02T23:23:46.405Z,2.33
2022-10-02T23:29:30.569Z,2.10
2022-10-02T23:35:11.796Z,2.30
2022-10-02T23:41:18.755Z,2.63
2022-10-02T23:46:50.017Z,2.07
2022-10-02T23:52:26.262Z,1.90
2022-10-02T23:58:24.931Z,2.17
